Time;durP1;ratioP1;P1;durP2;ratioP2;P2;SDS_P1;SDS_P2;PMS_P1;PMS_P2;Temp;Humidity;BMP_temperature;BMP_pressure;BME280_temperature;BME280_humidity;BME280_pressure;Samples;Min_cycle;Max_cycle;Signal;HPM_P1;HPM_P2
2021/07/01 00:01:38;;;;;;;;;;;;;;;28.48;58.35;99120.00;5132348;27;19934;-37
2021/07/01 00:04:03;;;;;;;;;;;;;;;28.39;58.41;99109.19;5132656;27;20382;-39
2021/07/01 00:06:28;;;;;;;;;;;;;;;29.37;55.76;99115.94;5132662;27;20371;-38
2021/07/01 00:08:54;;;;;;;;;;;;;;;28.53;58.37;99113.56;5132374;27;20271;-38
2021/07/01 00:11:19;;;;;;;;;;;;;;;28.25;59.01;99114.13;5132348;27;20010;-38
2021/07/01 00:13:44;;;;;;;;;;;;;;;28.29;59.00;99109.59;5132501;27;19973;-38
2021/07/01 00:16:09;;;;;;;;;;;;;;;28.41;58.61;99114.31;5132745;27;20299;-37
2021/07/01 00:18:35;;;;;;;;;;;;;;;28.35;58.97;99107.44;5132197;27;19924;-38
2021/07/01 00:21:00;;;;;;;;;;;;;;;28.99;57.07;99104.16;5122307;27;20293;-39
2021/07/01 00:23:25;;;;;;;;;;;;;;;28.42;58.50;99081.13;5111743;28;19912;-38
2021/07/01 00:25:50;;;;;;;;;;;;;;;28.02;60.00;99103.56;5111869;28;20389;-38
2021/07/01 00:28:16;;;;;;;;;;;;;;;28.01;60.07;99101.19;5111666;28;19969;-38
2021/07/01 00:30:41;;;;;;;;;;;;;;;28.00;60.24;99103.09;5111913;28;19916;-37
2021/07/01 00:33:06;;;;;;;;;;;;;;;27.95;60.27;99100.59;5129416;28;19915;-38
2021/07/01 00:35:32;;;;;;;;;;;;;;;28.24;59.11;99096.94;5131975;28;19958;-37
2021/07/01 00:37:57;;;;;;;;;;;;;;;28.37;58.57;99108.72;5132194;28;19939;-38
2021/07/01 00:40:22;;;;;;;;;;;;;;;27.73;60.95;99111.84;5132256;28;19912;-38
2021/07/01 00:42:47;;;;;;;;;;;;;;;27.62;61.50;99097.75;5132351;28;20330;-38
2021/07/01 00:45:13;;;;;;;;;;;;;;;27.57;61.71;99097.94;5132553;28;19967;-38
2021/07/01 00:47:38;;;;;;;;;;;;;;;27.59;61.83;99104.69;5132026;28;19911;-38
2021/07/01 00:50:05;;;;;;;;;;;;;;;27.66;61.48;99106.88;5132547;28;19947;-38
2021/07/01 00:52:30;;;;;;;;;;;;;;;28.49;58.76;99107.94;5132140;28;19976;-38
2021/07/01 00:54:56;;;;;;;;;;;;;;;27.76;60.74;99111.16;5132002;28;20284;-38
2021/07/01 00:57:21;;;;;;;;;;;;;;;27.47;61.61;99108.16;5132015;28;20320;-38
2021/07/01 00:59:47;;;;;;;;;;;;;;;27.39;62.13;99113.66;5113686;28;19958;-38
2021/07/01 01:02:12;;;;;;;;;;;;;;;27.49;61.79;99108.63;5131974;28;19915;-38
2021/07/01 01:04:37;;;;;;;;;;;;;;;27.43;62.23;99118.13;5131477;28;19912;-38
2021/07/01 01:07:03;;;;;;;;;;;;;;;27.52;61.76;99109.88;5131663;27;20367;-38
2021/07/01 01:09:28;;;;;;;;;;;;;;;27.45;62.11;99104.94;5131805;28;19919;-39
2021/07/01 01:11:53;;;;;;;;;;;;;;;27.40;62.25;99104.34;5131797;27;20398;-37
2021/07/01 01:14:18;;;;;;;;;;;;;;;27.46;62.04;99111.22;5134919;27;19960;-38
2021/07/01 01:16:44;;;;;;;;;;;;;;;27.42;62.27;99105.63;5135437;27;20323;-38
2021/07/01 01:19:09;;;;;;;;;;;;;;;27.16;62.92;99104.94;5135759;27;19923;-39
2021/07/01 01:21:36;;;;;;;;;;;;;;;27.79;61.07;99100.34;5120722;27;20402;-38
2021/07/01 01:24:03;;;;;;;;;;;;;;;27.20;62.75;99100.41;5115252;28;19934;-38
2021/07/01 01:26:28;;;;;;;;;;;;;;;26.84;63.93;99107.97;5115119;28;19912;-38
2021/07/01 01:28:53;;;;;;;;;;;;;;;26.39;65.87;99110.31;5115011;28;19918;-38
2021/07/01 01:31:19;;;;;;;;;;;;;;;26.56;65.08;99107.56;5114962;28;19912;-36
2021/07/01 01:33:44;;;;;;;;;;;;;;;26.51;65.28;99113.97;5115060;28;19998;-37
2021/07/01 01:36:10;;;;;;;;;;;;;;;26.61;65.27;99107.41;5114281;28;20007;-38
2021/07/01 01:38:35;;;;;;;;;;;;;;;26.57;65.18;99103.69;5114056;28;19912;-37
2021/07/01 01:41:00;;;;;;;;;;;;;;;26.65;65.07;99107.56;5114398;28;20024;-36
2021/07/01 01:43:26;;;;;;;;;;;;;;;26.57;65.35;99106.41;5114503;28;19965;-38
2021/07/01 01:45:51;;;;;;;;;;;;;;;26.48;65.49;99106.47;5114554;28;19954;-38
2021/07/01 01:48:16;;;;;;;;;;;;;;;26.50;65.58;99109.66;5114863;28;19932;-36
2021/07/01 01:50:42;;;;;;;;;;;;;;;26.66;65.22;99117.34;5114365;28;19915;-39
2021/07/01 01:53:08;;;;;;;;;;;;;;;26.65;64.82;99119.25;5114982;28;19981;-40
2021/07/01 01:55:33;;;;;;;;;;;;;;;26.64;65.13;99125.84;5114846;28;19912;-37
2021/07/01 01:57:58;;;;;;;;;;;;;;;26.61;65.16;99128.44;5114478;28;19912;-38
2021/07/01 02:00:24;;;;;;;;;;;;;;;26.88;64.42;99128.03;5114691;28;20348;-39
2021/07/01 02:02:49;;;;;;;;;;;;;;;26.84;64.72;99127.06;5114429;28;19912;-38
2021/07/01 02:05:14;;;;;;;;;;;;;;;26.96;64.10;99120.94;5114226;28;19983;-38
2021/07/01 02:07:40;;;;;;;;;;;;;;;26.80;64.59;99126.13;5114219;28;19912;-38
2021/07/01 02:10:06;;;;;;;;;;;;;;;26.95;64.09;99118.53;5113891;28;20312;-39
2021/07/01 02:12:31;;;;;;;;;;;;;;;26.82;64.45;99125.78;5113499;28;19916;-38
2021/07/01 02:14:57;;;;;;;;;;;;;;;26.85;64.44;99117.75;5113699;28;19923;-39
2021/07/01 02:17:22;;;;;;;;;;;;;;;26.90;64.08;99114.84;5113774;28;19928;-38
2021/07/01 02:19:48;;;;;;;;;;;;;;;26.86;64.51;99121.28;5114068;28;20359;-38
2021/07/01 02:22:13;;;;;;;;;;;;;;;26.74;64.69;99115.72;5113823;28;20002;-38
2021/07/01 02:24:38;;;;;;;;;;;;;;;26.65;65.00;99123.94;5113064;28;19915;-39
2021/07/01 02:27:04;;;;;;;;;;;;;;;26.56;65.12;99123.09;5113518;28;19912;-38
2021/07/01 02:29:29;;;;;;;;;;;;;;;26.52;64.06;99126.50;5113765;28;19912;-39
2021/07/01 02:31:54;;;;;;;;;;;;;;;26.61;60.57;99125.72;5113306;28;19919;-38
2021/07/01 02:34:19;;;;;;;;;;;;;;;26.54;59.39;99126.19;5106230;28;19938;-38
2021/07/01 02:36:45;;;;;;;;;;;;;;;26.23;59.85;99131.84;5112857;28;20008;-38
2021/07/01 02:39:10;;;;;;;;;;;;;;;26.42;59.34;99134.22;5113464;28;19924;-39
2021/07/01 02:41:35;;;;;;;;;;;;;;;26.50;58.38;99138.84;5113397;28;20303;-39
2021/07/01 02:44:01;;;;;;;;;;;;;;;26.50;57.80;99153.31;5113601;28;19911;-39
2021/07/01 02:46:26;;;;;;;;;;;;;;;26.49;57.02;99159.09;5113455;28;19911;-38
2021/07/01 02:48:51;;;;;;;;;;;;;;;26.63;56.31;99148.00;5096074;28;19923;-38
2021/07/01 02:51:16;;;;;;;;;;;;;;;26.72;56.18;99148.78;5092662;28;19963;-38
2021/07/01 02:53:42;;;;;;;;;;;;;;;26.40;56.74;99129.09;5093310;28;19916;-39
2021/07/01 02:56:07;;;;;;;;;;;;;;;26.35;57.64;99148.38;5092787;28;19912;-38
2021/07/01 02:58:32;;;;;;;;;;;;;;;26.31;57.71;99150.09;5092076;28;19912;-38
2021/07/01 03:00:58;;;;;;;;;;;;;;;26.17;57.20;99158.47;5092185;28;19912;-38
2021/07/01 03:03:23;;;;;;;;;;;;;;;26.24;57.21;99158.00;5092192;28;19979;-38
2021/07/01 03:05:49;;;;;;;;;;;;;;;26.23;57.77;99165.34;5092178;28;19912;-39
2021/07/01 03:08:14;;;;;;;;;;;;;;;26.30;57.77;99160.22;5091829;28;20050;-38
2021/07/01 03:10:39;;;;;;;;;;;;;;;26.59;56.25;99161.50;5091857;28;19973;-38
2021/07/01 03:13:04;;;;;;;;;;;;;;;26.51;55.78;99173.19;5091646;28;20303;-38
2021/07/01 03:15:30;;;;;;;;;;;;;;;26.40;56.23;99174.66;5092032;28;19959;-37
2021/07/01 03:17:55;;;;;;;;;;;;;;;26.94;54.39;99175.06;5091699;28;19989;-38
2021/07/01 03:20:20;;;;;;;;;;;;;;;26.40;56.19;99180.13;5096013;28;19955;-38
2021/07/01 03:22:46;;;;;;;;;;;;;;;26.08;56.66;99180.28;5111835;28;19911;-37
2021/07/01 03:25:11;;;;;;;;;;;;;;;26.08;56.90;99177.56;5112626;27;19960;-38
2021/07/01 03:27:36;;;;;;;;;;;;;;;26.09;56.91;99183.81;5132474;27;19912;-38
2021/07/01 03:30:02;;;;;;;;;;;;;;;26.24;56.57;99191.50;5132365;27;20002;-38
2021/07/01 03:32:27;;;;;;;;;;;;;;;26.47;55.70;99191.34;5132374;27;19927;-38
2021/07/01 03:34:52;;;;;;;;;;;;;;;27.06;53.87;99185.28;5132172;27;20421;-38
2021/07/01 03:37:18;;;;;;;;;;;;;;;26.42;55.24;99153.31;5131701;27;19919;-38
2021/07/01 03:39:43;;;;;;;;;;;;;;;26.41;55.61;99193.44;5132310;27;19919;-38
2021/07/01 03:42:09;;;;;;;;;;;;;;;26.21;56.39;99194.06;5132095;27;19922;-38
2021/07/01 03:44:37;;;;;;;;;;;;;;;26.34;56.01;99195.84;5132024;27;19911;-38
2021/07/01 03:47:02;;;;;;;;;;;;;;;26.28;55.76;99170.66;5132183;27;19935;-39
2021/07/01 03:49:27;;;;;;;;;;;;;;;26.43;55.68;99198.56;5132162;27;20265;-38
2021/07/01 03:51:53;;;;;;;;;;;;;;;26.29;56.23;99188.63;5131822;27;19921;-38
2021/07/01 03:54:18;;;;;;;;;;;;;;;26.25;56.45;99197.75;5131905;27;20247;-38
2021/07/01 03:56:44;;;;;;;;;;;;;;;26.10;56.82;99199.84;5132149;27;19911;-38
2021/07/01 03:59:12;;;;;;;;;;;;;;;26.42;56.25;99196.94;5131998;27;20444;-39
2021/07/01 04:01:38;;;;;;;;;;;;;;;27.19;54.25;99197.09;5131777;27;20274;-39
2021/07/01 04:04:03;;;;;;;;;;;;;;;27.56;53.42;99201.00;5122300;27;20268;-39
2021/07/01 04:06:28;;;;;;;;;;;;;;;27.09;54.35;99201.00;5111640;28;19911;-38
2021/07/01 04:08:54;;;;;;;;;;;;;;;26.91;54.11;99195.59;5111143;28;19912;-39
2021/07/01 04:11:19;;;;;;;;;;;;;;;26.99;54.40;99198.63;5111223;28;19919;-37
2021/07/01 04:13:44;;;;;;;;;;;;;;;27.13;53.52;99207.44;5111288;28;20370;-38
2021/07/01 04:16:09;;;;;;;;;;;;;;;27.49;52.91;99195.22;5111108;28;19923;-39
2021/07/01 04:18:35;;;;;;;;;;;;;;;27.82;51.62;99197.31;5111206;28;19931;-39
2021/07/01 04:21:00;;;;;;;;;;;;;;;27.53;53.14;99206.31;5110973;28;20430;-38
2021/07/01 04:23:25;;;;;;;;;;;;;;;27.63;53.22;99200.47;5117527;27;19924;-38
2021/07/01 04:25:51;;;;;;;;;;;;;;;28.00;52.29;99201.53;5116779;28;20018;-39
2021/07/01 04:28:17;;;;;;;;;;;;;;;27.95;51.75;99199.03;5103866;28;19954;-38
2021/07/01 04:30:42;;;;;;;;;;;;;;;28.27;51.57;99202.13;5093336;28;20012;-39
2021/07/01 04:33:07;;;;;;;;;;;;;;;29.12;49.07;99202.75;5100649;28;19934;-37
2021/07/01 04:35:33;;;;;;;;;;;;;;;28.64;50.02;99192.16;5121223;28;20381;-39
2021/07/01 04:37:58;;;;;;;;;;;;;;;28.46;50.90;99188.78;5131753;28;20005;-38
2021/07/01 04:40:23;;;;;;;;;;;;;;;28.74;50.99;99192.88;5113135;28;19919;-37
2021/07/01 04:42:48;;;;;;;;;;;;;;;29.02;50.48;99199.31;5131456;28;19911;-37
2021/07/01 04:45:14;;;;;;;;;;;;;;;29.38;49.39;99197.00;5131578;27;19956;-38
2021/07/01 04:47:39;;;;;;;;;;;;;;;30.50;46.53;99199.19;5133643;27;19912;-39
2021/07/01 04:50:04;;;;;;;;;;;;;;;30.09;47.55;99206.63;5136059;27;19931;-39
2021/07/01 04:52:30;;;;;;;;;;;;;;;29.72;47.60;99203.13;5135278;27;20365;-38
2021/07/01 04:54:55;;;;;;;;;;;;;;;29.62;48.07;99201.66;5134333;27;20422;-38
2021/07/01 04:57:20;;;;;;;;;;;;;;;29.51;48.56;99195.84;5135343;27;20029;-38
2021/07/01 04:59:45;;;;;;;;;;;;;;;29.74;47.76;99190.72;5135086;27;20306;-38
2021/07/01 05:02:11;;;;;;;;;;;;;;;30.67;46.05;99189.81;5135285;27;20002;-38
2021/07/01 05:04:36;;;;;;;;;;;;;;;30.28;47.05;99196.97;5135207;27;19995;-36
2021/07/01 05:07:01;;;;;;;;;;;;;;;30.72;46.14;99195.06;5133589;27;19911;-39
2021/07/01 05:09:27;;;;;;;;;;;;;;;30.81;45.89;99186.69;5133132;27;20358;-38
2021/07/01 05:11:52;;;;;;;;;;;;;;;31.20;45.05;99186.09;5132818;27;19926;-38
2021/07/01 05:14:17;;;;;;;;;;;;;;;31.17;44.90;99182.91;5133054;27;19969;-38
2021/07/01 05:16:43;;;;;;;;;;;;;;;31.76;43.60;99181.16;5133303;27;19915;-38
2021/07/01 05:19:08;;;;;;;;;;;;;;;31.79;44.08;99178.84;5132724;27;20468;-38
2021/07/01 05:21:33;;;;;;;;;;;;;;;31.40;44.93;99176.78;5119139;27;19919;-38
2021/07/01 05:24:00;;;;;;;;;;;;;;;31.37;45.83;99174.72;5113297;28;20307;-39
2021/07/01 05:26:25;;;;;;;;;;;;;;;31.66;44.98;99172.66;5114072;28;19912;-38
2021/07/01 05:28:51;;;;;;;;;;;;;;;31.91;44.21;99170.44;5113766;28;19919;-39
2021/07/01 05:31:16;;;;;;;;;;;;;;;31.76;44.83;99180.38;5113658;28;20435;-38
2021/07/01 05:33:41;;;;;;;;;;;;;;;32.05;44.34;99181.78;5114101;28;19916;-38
2021/07/01 05:36:07;;;;;;;;;;;;;;;32.25;43.58;99190.88;5113894;28;20440;-38
2021/07/01 05:38:32;;;;;;;;;;;;;;;32.22;44.39;99183.31;5095267;28;19919;-38
2021/07/01 05:40:58;;;;;;;;;;;;;;;32.26;43.26;99169.63;5113573;28;20303;-38
2021/07/01 05:43:24;;;;;;;;;;;;;;;33.26;41.42;99165.13;5113649;28;20010;-39
2021/07/01 05:45:50;;;;;;;;;;;;;;;33.08;41.79;99170.34;5113762;28;19912;-37
2021/07/01 05:48:15;;;;;;;;;;;;;;;33.02;41.88;99174.59;5113325;28;20015;-38
2021/07/01 05:51:23;;;;;;;;;;;;;;;32.80;43.12;99165.16;5113104;28;19911;-39
2021/07/01 05:53:32;;;;;;;;;;;;;;;33.43;41.56;99169.31;5110342;27;20006;-39
2021/07/01 05:55:58;;;;;;;;;;;;;;;34.43;39.54;99169.88;5112878;28;20400;-37
2021/07/01 05:58:23;;;;;;;;;;;;;;;34.21;40.14;99166.06;5112861;28;20034;-38
2021/07/01 06:00:48;;;;;;;;;;;;;;;33.75;40.64;99167.06;5113470;28;20343;-39
2021/07/01 06:03:14;;;;;;;;;;;;;;;33.73;40.61;99158.38;5116178;27;20370;-39
2021/07/01 06:05:42;;;;;;;;;;;;;;;33.88;41.19;99173.94;5134444;27;19967;-39
2021/07/01 06:08:09;;;;;;;;;;;;;;;33.76;40.59;99171.41;5133135;27;19912;-39
2021/07/01 06:10:35;;;;;;;;;;;;;;;34.58;39.08;99174.38;5133354;27;20298;-39
2021/07/01 06:13:03;;;;;;;;;;;;;;;34.32;39.83;99167.00;5132447;27;19976;-38
2021/07/01 06:15:28;;;;;;;;;;;;;;;33.76;40.70;99165.91;5114993;27;20324;-39
2021/07/01 06:17:53;;;;;;;;;;;;;;;33.72;41.06;99159.53;5114945;27;19931;-38
2021/07/01 06:20:19;;;;;;;;;;;;;;;33.62;41.82;99157.38;5129021;27;20310;-39
2021/07/01 06:22:44;;;;;;;;;;;;;;;34.29;40.66;99165.00;5113101;28;19938;-38
2021/07/01 06:25:09;;;;;;;;;;;;;;;34.23;40.50;99161.78;5094253;28;19911;-39
2021/07/01 06:27:38;;;;;;;;;;;;;;;34.43;40.47;99158.84;5111013;28;19911;-39
2021/07/01 06:30:20;;;;;;;;;;;;;;;34.42;40.27;99152.53;5111165;28;19920;-38
2021/07/01 06:32:46;;;;;;;;;;;;;;;34.46;40.10;99147.84;5110582;28;20383;-39
2021/07/01 06:35:12;;;;;;;;;;;;;;;35.47;38.39;99159.78;5110875;28;19988;-39
2021/07/01 06:37:37;;;;;;;;;;;;;;;35.05;39.31;99149.94;5110852;28;19918;-39
2021/07/01 06:40:05;;;;;;;;;;;;;;;35.31;38.98;99159.25;5110961;28;20314;-39
2021/07/01 06:42:30;;;;;;;;;;;;;;;35.35;38.40;99140.72;5112008;28;19915;-38
2021/07/01 06:44:55;;;;;;;;;;;;;;;35.86;37.40;99158.41;5111214;28;20362;-38
2021/07/01 06:47:21;;;;;;;;;;;;;;;36.70;35.57;99139.69;5111181;28;20007;-39
2021/07/01 06:49:46;;;;;;;;;;;;;;;34.92;39.16;99155.00;5112862;28;19912;-39
2021/07/01 06:52:12;;;;;;;;;;;;;;;34.65;40.29;99152.34;5110895;28;20352;-38
2021/07/01 06:54:37;;;;;;;;;;;;;;;35.50;38.78;99149.91;5112658;28;20004;-38
2021/07/01 06:57:02;;;;;;;;;;;;;;;36.29;37.70;99145.56;5128023;27;20068;-40
2021/07/01 06:59:28;;;;;;;;;;;;;;;37.05;36.25;99145.63;5112231;28;19911;-39
2021/07/01 07:01:53;;;;;;;;;;;;;;;36.52;36.36;99141.63;5111939;28;19951;-39
2021/07/01 07:04:18;;;;;;;;;;;;;;;36.16;36.81;99145.09;5123573;27;19995;-39
2021/07/01 07:06:47;;;;;;;;;;;;;;;36.58;36.52;99138.09;5132516;27;19923;-38
2021/07/01 07:09:13;;;;;;;;;;;;;;;37.14;35.85;99138.53;5132955;27;19911;-38
2021/07/01 07:11:38;;;;;;;;;;;;;;;37.65;34.09;99138.47;5131435;27;19912;-39
2021/07/01 07:14:03;;;;;;;;;;;;;;;36.86;35.07;99142.09;5114208;27;19911;-40
2021/07/01 07:16:29;;;;;;;;;;;;;;;36.78;35.42;99141.31;5132775;27;20123;-39
2021/07/01 07:18:55;;;;;;;;;;;;;;;36.69;35.87;99132.59;5132248;27;19934;-39
2021/07/01 07:21:21;;;;;;;;;;;;;;;37.56;34.17;99127.75;5100678;28;19951;-38
2021/07/01 07:23:47;;;;;;;;;;;;;;;37.30;34.92;99132.56;5112227;28;19947;-39
2021/07/01 07:26:22;;;;;;;;;;;;;;;37.11;34.79;99128.22;5112042;28;19994;-39
2021/07/01 07:28:51;;;;;;;;;;;;;;;36.43;36.80;99128.16;5111423;28;19971;-39
2021/07/01 07:31:24;;;;;;;;;;;;;;;36.24;36.55;99126.53;5111392;28;19934;-39
2021/07/01 07:33:51;;;;;;;;;;;;;;;37.66;33.98;99123.38;5111148;28;20351;-39
2021/07/01 07:36:18;;;;;;;;;;;;;;;37.11;34.91;99124.63;5111577;28;19919;-39
2021/07/01 07:38:43;;;;;;;;;;;;;;;37.11;35.61;99119.91;5111919;28;19946;-38
2021/07/01 07:41:09;;;;;;;;;;;;;;;37.30;34.85;99115.94;5093365;28;19952;-38
2021/07/01 07:43:34;;;;;;;;;;;;;;;37.36;34.75;99116.31;5093646;28;20015;-40
2021/07/01 07:46:00;;;;;;;;;;;;;;;38.08;33.48;99121.63;5093394;28;19923;-39
2021/07/01 07:48:25;;;;;;;;;;;;;;;36.87;35.54;99124.25;5111237;28;19911;-39
2021/07/01 07:50:51;;;;;;;;;;;;;;;36.81;36.12;99122.31;5111530;28;20399;-39
2021/07/01 07:53:18;;;;;;;;;;;;;;;37.34;34.41;99125.03;5111095;28;19939;-40
2021/07/01 07:55:44;;;;;;;;;;;;;;;37.78;34.22;99134.06;5111216;28;19919;-39
2021/07/01 07:58:09;;;;;;;;;;;;;;;37.22;34.95;99131.00;5093020;28;19960;-38
2021/07/01 08:00:35;;;;;;;;;;;;;;;36.66;36.00;99121.50;5110682;28;20018;-40
2021/07/01 08:03:01;;;;;;;;;;;;;;;36.62;35.80;99117.91;5093137;28;19912;-40
2021/07/01 08:05:28;;;;;;;;;;;;;;;36.85;36.30;99114.78;5111186;28;20309;-38
2021/07/01 08:07:53;;;;;;;;;;;;;;;37.65;34.29;99122.59;5111482;28;19943;-40
2021/07/01 08:10:19;;;;;;;;;;;;;;;37.75;33.80;99113.44;5109956;28;20339;-40
2021/07/01 08:12:46;;;;;;;;;;;;;;;36.58;36.22;99115.13;5110870;28;19939;-39
2021/07/01 08:15:12;;;;;;;;;;;;;;;37.02;35.63;99111.19;5111245;28;19916;-41
2021/07/01 08:17:42;;;;;;;;;;;;;;;37.33;35.31;99104.03;5110803;28;19924;-39
2021/07/01 08:20:08;;;;;;;;;;;;;;;38.15;34.34;99107.72;5111341;28;19995;-40
2021/07/01 08:22:33;;;;;;;;;;;;;;;37.83;34.10;99100.31;5110572;28;19915;-39
2021/07/01 08:24:59;;;;;;;;;;;;;;;37.72;34.17;99099.59;5111322;28;19912;-40
2021/07/01 08:27:24;;;;;;;;;;;;;;;37.38;35.36;99100.06;5111100;28;19911;-40
2021/07/01 08:29:49;;;;;;;;;;;;;;;38.09;34.00;99095.47;5092854;28;20381;-38
2021/07/01 08:32:15;;;;;;;;;;;;;;;39.01;32.41;99101.53;5092341;28;20003;-39
2021/07/01 08:34:41;;;;;;;;;;;;;;;38.32;33.50;99101.25;5092577;28;19916;-39
2021/07/01 08:37:06;;;;;;;;;;;;;;;38.08;33.87;99093.88;5093056;28;20348;-41
2021/07/01 08:39:33;;;;;;;;;;;;;;;37.61;34.36;99094.06;5111325;28;19919;-41
2021/07/01 08:42:00;;;;;;;;;;;;;;;37.64;34.53;99086.91;5111233;28;19923;-41
2021/07/01 08:44:29;;;;;;;;;;;;;;;37.60;34.19;99084.13;5110979;28;20004;-40
2021/07/01 08:47:03;;;;;;;;;;;;;;;37.67;34.26;99086.91;5111189;28;19912;-40
2021/07/01 08:49:28;;;;;;;;;;;;;;;37.01;35.65;99084.66;5110863;28;20302;-39
2021/07/01 08:51:54;;;;;;;;;;;;;;;37.29;35.18;99085.81;5110958;28;19916;-40
2021/07/01 08:54:26;;;;;;;;;;;;;;;37.51;35.01;99087.34;5110836;28;19911;-39
2021/07/01 08:56:54;;;;;;;;;;;;;;;37.20;34.96;99089.00;5110647;28;19961;-40
2021/07/01 08:59:20;;;;;;;;;;;;;;;37.40;35.79;99083.03;5109779;28;19911;-40
2021/07/01 09:01:47;;;;;;;;;;;;;;;37.06;35.80;99078.72;5110447;28;20039;-41
2021/07/01 09:04:13;;;;;;;;;;;;;;;36.58;36.25;99077.13;5121491;28;19912;-41
2021/07/01 09:06:38;;;;;;;;;;;;;;;36.74;36.31;99078.75;5130822;28;19964;-42
2021/07/01 09:09:04;;;;;;;;;;;;;;;37.09;35.63;99072.38;5129945;28;19918;-40
2021/07/01 09:11:30;;;;;;;;;;;;;;;38.31;33.89;99068.34;5130329;27;20284;-40
2021/07/01 09:13:57;;;;;;;;;;;;;;;38.48;32.85;99061.88;5112350;28;19960;-39
2021/07/01 09:16:22;;;;;;;;;;;;;;;37.79;34.62;99063.44;5130993;28;20054;-40
2021/07/01 09:18:48;;;;;;;;;;;;;;;37.25;35.99;99060.88;5112430;28;19970;-41
2021/07/01 09:21:13;;;;;;;;;;;;;;;37.00;36.74;99046.25;5118595;28;20279;-40
2021/07/01 09:23:44;;;;;;;;;;;;;;;36.60;37.95;99055.34;5109771;28;19922;-40
2021/07/01 09:26:10;;;;;;;;;;;;;;;36.46;37.83;99054.56;5110539;28;19947;-39
2021/07/01 09:28:35;;;;;;;;;;;;;;;36.56;37.16;99046.25;5110351;28;20359;-40
2021/07/01 09:31:01;;;;;;;;;;;;;;;36.85;36.93;99043.50;5091756;28;19969;-40
2021/07/01 09:33:26;;;;;;;;;;;;;;;36.84;36.42;99047.44;5091754;28;19921;-39
2021/07/01 09:35:52;;;;;;;;;;;;;;;36.95;36.23;99050.22;5104218;28;20315;-40
2021/07/01 09:38:18;;;;;;;;;;;;;;;37.20;36.15;99043.84;5114087;28;19977;-40
2021/07/01 09:40:43;;;;;;;;;;;;;;;36.20;36.95;99045.44;5112688;28;19965;-41
2021/07/01 09:43:08;;;;;;;;;;;;;;;36.33;36.84;99048.63;5112512;28;19947;-39
2021/07/01 09:45:35;;;;;;;;;;;;;;;36.42;36.66;99043.47;5114070;28;20370;-39
2021/07/01 09:48:04;;;;;;;;;;;;;;;36.31;36.91;99037.13;5112884;28;19916;-39
2021/07/01 09:50:30;;;;;;;;;;;;;;;36.36;36.93;99029.22;5114306;27;19922;-42
2021/07/01 09:52:55;;;;;;;;;;;;;;;36.60;36.52;99033.19;5115770;27;20006;-40
2021/07/01 09:55:24;;;;;;;;;;;;;;;36.49;36.94;99031.63;5134506;27;20302;-40
2021/07/01 09:57:51;;;;;;;;;;;;;;;36.84;35.70;99028.03;5134341;27;19912;-39
2021/07/01 10:00:16;;;;;;;;;;;;;;;36.92;35.79;99032.41;5115884;27;20400;-40
2021/07/01 10:02:42;;;;;;;;;;;;;;;37.00;35.92;99022.09;5134153;27;19915;-39
2021/07/01 10:05:08;;;;;;;;;;;;;;;36.35;37.40;99018.56;5134162;27;19912;-39
2021/07/01 10:07:33;;;;;;;;;;;;;;;36.51;36.76;99018.94;5134405;27;19916;-39
2021/07/01 10:10:10;;;;;;;;;;;;;;;36.67;36.38;99017.78;5133987;27;19918;-40
2021/07/01 10:12:35;;;;;;;;;;;;;;;37.12;34.71;99007.78;5133571;27;19922;-39
2021/07/01 10:15:05;;;;;;;;;;;;;;;37.01;34.42;99007.03;5115274;27;20283;-40
2021/07/01 10:17:30;;;;;;;;;;;;;;;37.65;33.40;99003.28;5117004;27;20383;-39
2021/07/01 10:20:06;;;;;;;;;;;;;;;37.79;33.36;99019.03;5112820;28;19918;-40
2021/07/01 10:22:49;;;;;;;;;;;;;;;36.87;34.82;99005.09;5113350;28;19919;-40
2021/07/01 10:25:15;;;;;;;;;;;;;;;36.99;34.40;99009.41;5111597;28;19911;-38
2021/07/01 10:27:41;;;;;;;;;;;;;;;36.91;34.58;98996.75;5111358;28;19922;-39
2021/07/01 10:30:16;;;;;;;;;;;;;;;37.31;34.42;99001.00;5113135;28;19912;-38
2021/07/01 10:32:42;;;;;;;;;;;;;;;36.33;35.62;98996.81;5105059;27;19924;-39
2021/07/01 10:35:18;;;;;;;;;;;;;;;36.09;36.20;98989.25;5110396;28;20371;-40
2021/07/01 10:37:53;;;;;;;;;;;;;;;36.06;35.39;98971.44;5097799;28;19941;-39
2021/07/01 10:40:19;;;;;;;;;;;;;;;36.71;34.22;98969.50;5092252;28;19919;-39
2021/07/01 10:42:49;;;;;;;;;;;;;;;37.87;32.88;98975.38;5091507;28;19920;-40
2021/07/01 10:45:14;;;;;;;;;;;;;;;37.29;32.66;98974.88;5091813;28;20322;-39
2021/07/01 10:47:39;;;;;;;;;;;;;;;37.09;33.43;98977.28;5091821;28;20445;-40
2021/07/01 10:50:12;;;;;;;;;;;;;;;36.97;33.64;98968.22;5073904;28;19912;-38
2021/07/01 10:52:42;;;;;;;;;;;;;;;36.00;34.69;98965.53;5073810;28;19916;-40
2021/07/01 10:55:07;;;;;;;;;;;;;;;35.89;36.07;98955.59;5091994;28;19985;-40
2021/07/01 10:57:32;;;;;;;;;;;;;;;36.34;34.48;98953.28;5092156;28;20011;-40
2021/07/01 10:59:58;;;;;;;;;;;;;;;36.24;34.73;98943.78;5074098;28;19957;-40
2021/07/01 11:02:30;;;;;;;;;;;;;;;36.02;34.48;98940.19;5092093;28;19968;-40
2021/07/01 11:04:56;;;;;;;;;;;;;;;36.69;33.04;98933.09;5092049;28;20348;-39
2021/07/01 11:07:21;;;;;;;;;;;;;;;36.87;32.95;98938.56;5091992;28;20325;-40
2021/07/01 11:09:48;;;;;;;;;;;;;;;36.65;33.27;98942.53;5092110;28;19919;-39
2021/07/01 11:12:13;;;;;;;;;;;;;;;36.50;33.16;98937.03;5091780;28;19920;-39
2021/07/01 11:14:39;;;;;;;;;;;;;;;36.43;34.04;98936.25;5091782;28;19912;-41
2021/07/01 11:17:05;;;;;;;;;;;;;;;37.26;32.91;98937.66;5115895;27;20350;-40
2021/07/01 11:19:37;;;;;;;;;;;;;;;37.14;32.40;98938.09;5132980;27;19912;-39
2021/07/01 11:22:03;;;;;;;;;;;;;;;36.38;34.83;98921.59;5113547;27;19918;-40
2021/07/01 11:24:28;;;;;;;;;;;;;;;36.59;34.06;98920.81;5093593;28;19911;-39
2021/07/01 11:26:54;;;;;;;;;;;;;;;36.49;33.56;98916.06;5112186;28;20395;-40
2021/07/01 11:29:38;;;;;;;;;;;;;;;36.01;34.93;98906.19;5111647;28;19918;-40
2021/07/01 11:32:04;;;;;;;;;;;;;;;36.40;34.07;98907.38;5111878;28;20011;-39
2021/07/01 11:34:39;;;;;;;;;;;;;;;36.30;33.60;98894.34;5111572;28;19998;-40
2021/07/01 11:37:04;;;;;;;;;;;;;;;36.31;34.24;98904.22;5111717;28;19935;-40
2021/07/01 11:39:29;;;;;;;;;;;;;;;36.28;34.24;98903.03;5111706;28;20341;-40
2021/07/01 11:41:55;;;;;;;;;;;;;;;36.26;35.16;98891.56;5113284;27;19970;-39
2021/07/01 11:44:22;;;;;;;;;;;;;;;37.02;33.09;98886.63;5111608;28;20271;-40
2021/07/01 11:46:47;;;;;;;;;;;;;;;37.30;32.06;98880.19;5111809;28;19924;-39
2021/07/01 11:49:12;;;;;;;;;;;;;;;37.20;33.39;98871.91;5111650;28;19912;-41
2021/07/01 11:51:38;;;;;;;;;;;;;;;37.00;33.43;98874.38;5126907;27;19923;-39
2021/07/01 11:54:04;;;;;;;;;;;;;;;36.16;35.63;98870.97;5111184;28;19920;-39
2021/07/01 11:56:29;;;;;;;;;;;;;;;36.43;34.76;98861.47;5109610;28;19916;-39
2021/07/01 11:58:54;;;;;;;;;;;;;;;36.82;34.11;98855.03;5111158;28;19916;-39
2021/07/01 12:01:20;;;;;;;;;;;;;;;36.97;33.05;98864.88;5110559;28;20432;-40
2021/07/01 12:03:46;;;;;;;;;;;;;;;36.89;33.40;98858.56;5110560;28;19982;-40
2021/07/01 12:06:20;;;;;;;;;;;;;;;36.58;32.77;98858.25;5111131;28;19912;-39
2021/07/01 12:08:45;;;;;;;;;;;;;;;36.54;33.75;98856.72;5111029;28;19912;-39
2021/07/01 12:11:10;;;;;;;;;;;;;;;36.74;32.88;98846.75;5110265;28;19908;-39
2021/07/01 12:13:36;;;;;;;;;;;;;;;36.54;32.62;98837.31;5111112;28;19916;-40
2021/07/01 12:16:01;;;;;;;;;;;;;;;36.54;33.32;98831.78;5111369;28;19918;-39
2021/07/01 12:18:53;;;;;;;;;;;;;;;36.70;32.97;98823.03;5110904;28;20004;-40
2021/07/01 12:21:19;;;;;;;;;;;;;;;36.79;33.50;98818.63;5107999;28;19951;-39
2021/07/01 12:23:45;;;;;;;;;;;;;;;36.46;33.29;98811.63;5111343;28;19924;-39
2021/07/01 12:26:13;;;;;;;;;;;;;;;36.31;34.41;98810.06;5110976;28;20311;-40
2021/07/01 12:28:38;;;;;;;;;;;;;;;36.20;34.71;98799.03;5092830;28;19916;-38
2021/07/01 12:31:05;;;;;;;;;;;;;;;36.53;33.96;98808.81;5111058;28;19920;-38
2021/07/01 12:33:45;;;;;;;;;;;;;;;36.36;34.26;98796.59;5131353;28;19976;-39
2021/07/01 12:36:20;;;;;;;;;;;;;;;36.47;33.79;98799.34;5131247;28;20369;-39
2021/07/01 12:39:07;;;;;;;;;;;;;;;36.85;34.18;98798.81;5131336;28;20353;-39
2021/07/01 12:41:39;;;;;;;;;;;;;;;36.55;33.82;98800.09;5116987;28;19934;-39
2021/07/01 12:44:08;;;;;;;;;;;;;;;36.49;34.05;98796.94;5110792;28;19992;-40